createdAt,value
2022-11-11T00:01:17.114Z,81.96
2022-11-11T00:04:04.092Z,82.06
2022-11-11T00:06:50.987Z,81.91
2022-11-11T00:09:37.723Z,81.90
2022-11-11T00:12:27.434Z,81.87
2022-11-11T00:15:14.322Z,82.01
2022-11-11T00:18:19.428Z,81.97
2022-11-11T00:21:32.907Z,82.02
2022-11-11T00:24:46.802Z,81.95
2022-11-11T00:27:34.982Z,81.85
2022-11-11T00:30:21.793Z,81.87
2022-11-11T00:33:08.454Z,82.00
2022-11-11T00:35:54.966Z,82.14
2022-11-11T00:38:45.367Z,82.22
2022-11-11T00:41:32.647Z,82.12
2022-11-11T00:44:19.437Z,82.12
2022-11-11T00:47:24.657Z,81.84
2022-11-11T00:50:46.466Z,82.06
2022-11-11T00:53:35.407Z,82.14
2022-11-11T00:56:24.477Z,82.11
2022-11-11T00:59:11.126Z,82.32
2022-11-11T01:01:57.886Z,82.22
2022-11-11T01:04:44.731Z,82.35
2022-11-11T01:07:31.481Z,82.79
2022-11-11T01:10:38.681Z,82.88
2022-11-11T01:13:33.420Z,82.53
2022-11-11T01:16:24.193Z,82.57
2022-11-11T01:19:10.976Z,82.75
2022-11-11T01:21:58.093Z,82.73
2022-11-11T01:24:46.333Z,82.97
2022-11-11T01:27:34.584Z,82.72
2022-11-11T01:30:21.621Z,83.01
2022-11-11T01:33:10.764Z,83.04
2022-11-11T01:36:14.107Z,83.20
2022-11-11T01:39:01.600Z,82.86
2022-11-11T01:41:48.105Z,82.79
2022-11-11T01:44:47.453Z,82.79
2022-11-11T01:48:22.130Z,82.91
2022-11-11T01:51:06.603Z,82.67
2022-11-11T01:54:02.580Z,82.67
2022-11-11T01:56:55.592Z,82.64
2022-11-11T01:59:46.119Z,82.75
2022-11-11T02:02:48.975Z,82.46
2022-11-11T02:05:46.389Z,82.58
2022-11-11T02:08:36.803Z,82.47
2022-11-11T02:11:43.885Z,82.27
2022-11-11T02:14:36.680Z,82.37
2022-11-11T02:17:25.036Z,82.33
2022-11-11T02:20:16.614Z,82.34
2022-11-11T02:23:38.974Z,82.54
2022-11-11T02:26:26.969Z,82.63
2022-11-11T02:29:18.452Z,82.68
2022-11-11T02:32:05.535Z,82.79
2022-11-11T02:34:52.328Z,83.05
2022-11-11T02:37:39.411Z,83.16
2022-11-11T02:41:04.530Z,83.53
2022-11-11T02:43:51.317Z,83.43
2022-11-11T02:46:38.189Z,83.44
2022-11-11T02:49:25.029Z,83.55
2022-11-11T02:52:11.684Z,83.63
2022-11-11T02:54:58.411Z,83.56
2022-11-11T02:57:45.110Z,83.57
2022-11-11T03:00:31.503Z,83.33
2022-11-11T03:03:18.552Z,83.18
2022-11-11T03:06:05.437Z,83.21
2022-11-11T03:08:52.436Z,83.27
2022-11-11T03:11:39.500Z,83.43
2022-11-11T03:14:26.909Z,83.44
2022-11-11T03:17:32.540Z,83.65
2022-11-11T03:20:39.200Z,83.70
2022-11-11T03:23:26.181Z,83.80
2022-11-11T03:26:13.157Z,83.87
2022-11-11T03:29:00.263Z,83.92
2022-11-11T03:31:46.947Z,84.26
2022-11-11T03:34:33.683Z,84.16
2022-11-11T03:37:39.171Z,84.56
2022-11-11T03:40:25.876Z,84.77
2022-11-11T03:43:14.942Z,84.51
2022-11-11T03:46:04.703Z,84.65
2022-11-11T03:48:51.577Z,84.74
2022-11-11T03:51:38.317Z,85.10
2022-11-11T03:54:25.267Z,85.00
2022-11-11T03:57:30.427Z,85.00
2022-11-11T04:00:27.756Z,85.07
2022-11-11T04:03:37.108Z,85.35
2022-11-11T04:06:42.697Z,85.19
2022-11-11T04:09:47.627Z,85.24
2022-11-11T04:12:56.475Z,85.37
2022-11-11T04:16:01.788Z,85.47
2022-11-11T04:19:07.475Z,85.65
2022-11-11T04:21:53.944Z,85.44
2022-11-11T04:24:59.069Z,85.55
2022-11-11T04:27:46.031Z,85.59
2022-11-11T04:30:32.724Z,85.64
2022-11-11T04:33:19.336Z,85.51
2022-11-11T04:36:06.380Z,85.33
2022-11-11T04:39:11.875Z,85.41
2022-11-11T04:42:08.284Z,85.59
2022-11-11T04:45:14.832Z,85.67
2022-11-11T04:48:10.764Z,85.57
2022-11-11T04:50:57.334Z,85.57
2022-11-11T04:53:43.844Z,85.95
2022-11-11T04:56:50.752Z,86.07
2022-11-11T04:59:37.256Z,86.26
2022-11-11T05:02:42.654Z,86.23
2022-11-11T05:05:53.968Z,85.84
2022-11-11T05:08:56.898Z,86.01
2022-11-11T05:11:43.520Z,85.90
2022-11-11T05:14:49.407Z,85.80
2022-11-11T05:18:14.442Z,86.01
2022-11-11T05:21:20.297Z,86.25
2022-11-11T05:24:26.050Z,86.21
2022-11-11T05:27:12.871Z,86.16
2022-11-11T05:29:59.791Z,86.28
2022-11-11T05:32:47.002Z,86.03
2022-11-11T05:35:33.819Z,86.15
2022-11-11T05:38:20.398Z,86.29
2022-11-11T05:41:08.698Z,86.23
2022-11-11T05:43:55.246Z,86.50
2022-11-11T05:46:41.981Z,86.43
2022-11-11T05:49:29.361Z,86.68
2022-11-11T05:52:17.779Z,86.65
2022-11-11T05:55:05.331Z,86.87
2022-11-11T05:57:52.040Z,86.75
2022-11-11T06:00:38.837Z,86.81
2022-11-11T06:03:25.659Z,86.87
2022-11-11T06:06:13.452Z,87.08
2022-11-11T06:09:00.409Z,87.01
2022-11-11T06:11:47.369Z,87.08
2022-11-11T06:14:34.252Z,87.31
2022-11-11T06:17:20.901Z,87.48
2022-11-11T06:20:08.508Z,87.33
2022-11-11T06:22:58.796Z,87.52
2022-11-11T06:26:04.342Z,87.35
2022-11-11T06:28:53.245Z,87.53
2022-11-11T06:31:39.703Z,87.53
2022-11-11T06:34:26.585Z,87.51
2022-11-11T06:37:13.432Z,87.37
2022-11-11T06:40:00.345Z,87.67
2022-11-11T06:42:46.928Z,87.74
2022-11-11T06:45:35.167Z,87.77
2022-11-11T06:48:24.005Z,87.68
2022-11-11T06:51:11.307Z,87.57
2022-11-11T06:53:58.000Z,87.45
2022-11-11T06:56:49.031Z,87.33
2022-11-11T06:59:35.952Z,87.36
2022-11-11T07:02:22.571Z,87.48
2022-11-11T07:05:09.473Z,87.32
2022-11-11T07:07:56.369Z,87.22
2022-11-11T07:10:48.885Z,87.22
2022-11-11T07:13:35.389Z,86.93
2022-11-11T07:16:22.171Z,86.92
2022-11-11T07:19:09.173Z,87.03
2022-11-11T07:21:56.126Z,86.79
2022-11-11T07:24:43.154Z,86.83
2022-11-11T07:27:30.001Z,86.65
2022-11-11T07:30:17.545Z,86.98
2022-11-11T07:33:04.178Z,86.69
2022-11-11T07:35:51.378Z,86.40
2022-11-11T07:38:38.270Z,86.08
2022-11-11T07:41:25.149Z,86.41
2022-11-11T07:44:11.973Z,86.20
2022-11-11T07:46:58.906Z,86.47
2022-11-11T07:49:45.664Z,86.13
2022-11-11T07:52:33.151Z,85.99
2022-11-11T07:55:19.876Z,85.68
2022-11-11T07:58:07.559Z,85.40
2022-11-11T08:00:54.233Z,85.20
2022-11-11T08:03:49.525Z,85.07
2022-11-11T08:06:36.462Z,84.49
2022-11-11T08:09:23.036Z,84.32
2022-11-11T08:12:28.726Z,84.30
2022-11-11T08:15:15.582Z,83.90
2022-11-11T08:18:02.317Z,83.66
2022-11-11T08:20:54.510Z,83.46
2022-11-11T08:26:49.470Z,83.32
2022-11-11T08:29:35.838Z,82.91
2022-11-11T08:32:22.204Z,82.53
2022-11-11T08:35:09.023Z,82.73
2022-11-11T08:37:56.142Z,82.34
2022-11-11T08:40:42.698Z,82.28
2022-11-11T08:43:36.801Z,82.27
2022-11-11T08:46:25.535Z,82.12
2022-11-11T08:49:13.106Z,81.99
2022-11-11T08:51:59.934Z,81.75
2022-11-11T08:54:46.794Z,81.80
2022-11-11T08:57:33.725Z,81.62
2022-11-11T09:00:20.365Z,81.05
2022-11-11T09:03:11.402Z,81.33
2022-11-11T09:05:58.186Z,81.01
2022-11-11T09:08:44.877Z,81.18
2022-11-11T09:11:36.204Z,81.30
2022-11-11T09:14:23.048Z,80.85
2022-11-11T09:17:10.134Z,80.42
2022-11-11T09:19:57.426Z,80.03
2022-11-11T09:22:45.614Z,80.21
2022-11-11T09:25:32.419Z,79.82
2022-11-11T09:28:19.190Z,79.44
2022-11-11T09:31:37.583Z,80.36
2022-11-11T09:34:13.579Z,79.32
2022-11-11T09:37:00.456Z,79.61
2022-11-11T09:39:47.107Z,79.64
2022-11-11T09:42:44.002Z,79.70
2022-11-11T09:46:01.422Z,79.34
2022-11-11T09:49:22.180Z,78.87
2022-11-11T09:52:22.288Z,78.39
2022-11-11T09:55:36.625Z,78.51
2022-11-11T09:58:33.219Z,78.30
2022-11-11T10:01:29.101Z,78.14
2022-11-11T10:04:52.621Z,78.05
2022-11-11T10:07:59.845Z,77.89
2022-11-11T10:10:53.517Z,77.89
2022-11-11T10:13:40.465Z,77.41
2022-11-11T10:16:59.458Z,77.32
2022-11-11T10:20:18.949Z,77.14
2022-11-11T10:23:18.703Z,76.98
2022-11-11T10:26:41.099Z,76.99
2022-11-11T10:29:40.465Z,76.63
2022-11-11T10:32:33.405Z,76.45
2022-11-11T10:35:29.714Z,76.45
2022-11-11T10:38:59.889Z,76.21
2022-11-11T10:41:49.298Z,75.26
2022-11-11T10:44:36.492Z,75.16
2022-11-11T10:47:43.994Z,75.39
2022-11-11T10:50:51.734Z,74.76
2022-11-11T10:54:14.695Z,73.78
2022-11-11T10:57:22.866Z,74.29
2022-11-11T11:00:12.702Z,74.02
2022-11-11T11:03:17.873Z,74.32
2022-11-11T11:06:31.589Z,74.64
2022-11-11T11:09:35.828Z,74.24
2022-11-11T11:12:38.448Z,74.15
2022-11-11T11:15:30.945Z,74.07
2022-11-11T11:18:19.088Z,74.29
2022-11-11T11:21:09.163Z,73.72
2022-11-11T11:23:55.811Z,73.71
2022-11-11T11:27:00.839Z,73.53
2022-11-11T11:29:47.522Z,73.48
2022-11-11T11:32:35.054Z,73.18
2022-11-11T11:35:38.562Z,73.24
2022-11-11T11:38:43.190Z,73.01
2022-11-11T11:41:42.771Z,73.55
2022-11-11T11:44:35.008Z,73.19
2022-11-11T11:47:39.730Z,72.79
2022-11-11T11:51:28.249Z,73.15
2022-11-11T11:55:04.890Z,72.79
2022-11-11T11:58:03.297Z,72.49
2022-11-11T12:01:16.469Z,72.40
2022-11-11T12:04:51.233Z,72.07
2022-11-11T12:08:15.937Z,72.17
2022-11-11T12:11:42.687Z,72.03
2022-11-11T12:15:31.093Z,72.38
2022-11-11T12:19:04.813Z,71.65
2022-11-11T12:22:08.642Z,71.25
2022-11-11T12:25:13.170Z,71.25
2022-11-11T12:28:21.945Z,71.58
2022-11-11T12:31:14.866Z,71.41
2022-11-11T12:34:21.444Z,71.57
2022-11-11T12:38:17.648Z,71.72
2022-11-11T12:41:40.326Z,71.57
2022-11-11T12:44:57.596Z,71.50
2022-11-11T12:48:15.332Z,71.63
2022-11-11T12:51:42.017Z,71.84
2022-11-11T12:54:46.491Z,72.57
2022-11-11T12:58:10.487Z,72.41
2022-11-11T13:01:24.257Z,72.37
2022-11-11T13:04:35.497Z,72.51
2022-11-11T13:08:15.802Z,72.77
2022-11-11T13:11:26.474Z,72.90
2022-11-11T13:14:34.247Z,72.99
2022-11-11T13:17:21.851Z,73.06
2022-11-11T13:20:51.273Z,73.10
2022-11-11T13:23:38.085Z,73.17
2022-11-11T13:26:40.510Z,73.23
2022-11-11T13:29:52.061Z,73.29
2022-11-11T13:32:46.561Z,73.64
2022-11-11T13:35:44.131Z,73.68
2022-11-11T13:38:39.461Z,73.84
2022-11-11T13:41:31.005Z,73.98
2022-11-11T13:44:51.994Z,73.86
2022-11-11T13:47:44.260Z,74.34
2022-11-11T13:50:39.207Z,74.32
2022-11-11T13:53:32.281Z,74.43
2022-11-11T13:56:43.187Z,74.51
2022-11-11T13:59:35.246Z,74.84
2022-11-11T14:02:21.642Z,74.99
2022-11-11T14:05:18.394Z,75.42
2022-11-11T14:08:07.840Z,75.28
2022-11-11T14:10:59.840Z,75.54
2022-11-11T14:13:46.707Z,75.58
2022-11-11T14:16:34.650Z,75.72
2022-11-11T14:19:21.373Z,76.82
2022-11-11T14:22:34.011Z,76.55
2022-11-11T14:25:26.142Z,76.27
2022-11-11T14:28:26.235Z,76.37
2022-11-11T14:31:12.629Z,76.40
2022-11-11T14:34:30.337Z,76.68
2022-11-11T14:37:57.544Z,76.77
2022-11-11T14:40:44.013Z,76.90
2022-11-11T14:43:38.388Z,77.11
2022-11-11T14:46:25.121Z,77.27
2022-11-11T14:49:44.131Z,77.33
2022-11-11T14:52:44.815Z,77.72
2022-11-11T14:55:38.111Z,77.76
2022-11-11T14:58:32.139Z,78.05
2022-11-11T15:01:20.789Z,78.24
2022-11-11T15:04:09.196Z,78.29
2022-11-11T15:07:01.729Z,78.54
2022-11-11T15:10:01.911Z,78.87
2022-11-11T15:13:02.077Z,79.03
2022-11-11T15:16:32.352Z,79.30
2022-11-11T15:19:41.355Z,79.37
2022-11-11T15:23:08.956Z,79.43
2022-11-11T15:26:47.125Z,79.79
2022-11-11T15:30:17.029Z,80.12
2022-11-11T15:33:40.982Z,80.23
2022-11-11T15:36:54.468Z,80.43
2022-11-11T15:39:44.400Z,80.64
2022-11-11T15:42:38.150Z,80.68
2022-11-11T15:45:36.409Z,80.95
2022-11-11T15:48:45.295Z,80.86
2022-11-11T15:51:35.686Z,81.12
2022-11-11T15:54:22.915Z,81.24
2022-11-11T15:57:33.221Z,81.48
2022-11-11T16:00:28.827Z,81.77
2022-11-11T16:03:33.633Z,81.89
2022-11-11T16:06:20.583Z,81.98
2022-11-11T16:09:09.631Z,82.28
2022-11-11T16:11:58.203Z,82.69
2022-11-11T16:14:48.627Z,82.73
2022-11-11T16:17:41.817Z,82.72
2022-11-11T16:20:39.050Z,82.95
2022-11-11T16:23:27.304Z,82.95
2022-11-11T16:26:15.910Z,83.01
2022-11-11T16:29:02.789Z,83.17
2022-11-11T16:31:49.370Z,83.25
2022-11-11T16:34:42.983Z,83.44
2022-11-11T16:37:29.852Z,83.74
2022-11-11T16:40:37.616Z,83.76
2022-11-11T16:43:43.089Z,83.60
2022-11-11T16:46:35.751Z,83.50
2022-11-11T16:49:37.364Z,83.62
2022-11-11T16:52:24.893Z,84.04
2022-11-11T16:55:23.750Z,84.17
2022-11-11T16:58:16.399Z,84.13
2022-11-11T17:01:03.834Z,84.34
2022-11-11T17:03:59.755Z,84.21
2022-11-11T17:06:55.536Z,84.59
2022-11-11T17:09:42.906Z,84.57
2022-11-11T17:12:31.629Z,84.71
2022-11-11T17:15:21.548Z,84.71
2022-11-11T17:18:09.201Z,84.82
2022-11-11T17:20:57.546Z,84.67
2022-11-11T17:23:43.889Z,84.66
2022-11-11T17:26:31.586Z,84.57
2022-11-11T17:29:18.082Z,84.74
2022-11-11T17:32:05.093Z,84.81
2022-11-11T17:34:51.719Z,84.83
2022-11-11T17:37:39.254Z,84.85
2022-11-11T17:40:25.770Z,84.97
2022-11-11T17:43:13.262Z,84.81
2022-11-11T17:46:01.572Z,84.95
2022-11-11T17:48:48.290Z,84.86
2022-11-11T17:51:34.937Z,85.06
2022-11-11T17:54:23.519Z,84.99
2022-11-11T17:57:10.905Z,85.03
2022-11-11T17:59:57.767Z,84.84
2022-11-11T18:02:44.315Z,84.97
2022-11-11T18:05:33.712Z,84.73
2022-11-11T18:08:20.823Z,84.72
2022-11-11T18:11:09.030Z,84.81
2022-11-11T18:13:55.409Z,84.90
2022-11-11T18:16:42.209Z,84.56
2022-11-11T18:19:29.221Z,84.61
2022-11-11T18:22:15.787Z,84.68
2022-11-11T18:25:03.604Z,84.46
2022-11-11T18:27:53.924Z,84.68
2022-11-11T18:30:40.857Z,84.72
2022-11-11T18:33:27.881Z,84.79
2022-11-11T18:36:20.459Z,84.90
2022-11-11T18:39:07.101Z,84.70
2022-11-11T18:41:53.968Z,84.80
2022-11-11T18:44:40.438Z,84.96
2022-11-11T18:47:26.901Z,84.82
2022-11-11T18:50:14.475Z,84.70
2022-11-11T18:53:01.092Z,84.96
2022-11-11T18:55:47.706Z,85.13
2022-11-11T18:58:36.234Z,85.01
2022-11-11T19:01:27.760Z,85.15
2022-11-11T19:04:14.887Z,85.15
2022-11-11T19:07:01.531Z,84.90
2022-11-11T19:09:48.027Z,85.09
2022-11-11T19:12:34.640Z,85.00
2022-11-11T19:15:21.113Z,84.90
2022-11-11T19:18:08.063Z,84.94
2022-11-11T19:20:54.744Z,85.17
2022-11-11T19:23:44.170Z,85.38
2022-11-11T19:26:31.953Z,85.26
2022-11-11T19:29:19.153Z,85.46
2022-11-11T19:32:05.596Z,85.68
2022-11-11T19:34:52.302Z,85.81
2022-11-11T19:37:39.133Z,85.79
2022-11-11T19:40:25.825Z,85.60
2022-11-11T19:43:12.378Z,85.77
2022-11-11T19:46:00.318Z,86.79
2022-11-11T19:48:47.901Z,86.65
2022-11-11T19:51:34.817Z,86.20
2022-11-11T19:54:21.402Z,86.26
2022-11-11T19:57:07.950Z,86.16
2022-11-11T19:59:54.405Z,85.91
2022-11-11T20:02:41.045Z,86.24
2022-11-11T20:05:27.564Z,86.38
2022-11-11T20:08:14.724Z,86.38
2022-11-11T20:11:07.166Z,86.32
2022-11-11T20:13:55.262Z,86.51
2022-11-11T20:16:42.134Z,86.71
2022-11-11T20:19:28.848Z,87.22
2022-11-11T20:22:15.700Z,87.27
2022-11-11T20:25:02.854Z,87.81
2022-11-11T20:27:49.748Z,87.34
2022-11-11T20:30:36.612Z,87.23
2022-11-11T20:33:23.761Z,87.15
2022-11-11T20:36:13.255Z,87.08
2022-11-11T20:39:00.043Z,87.36
2022-11-11T20:41:46.560Z,87.35
2022-11-11T20:44:34.329Z,87.17
2022-11-11T20:47:20.979Z,86.86
2022-11-11T20:50:08.338Z,86.72
2022-11-11T20:52:54.852Z,86.58
2022-11-11T20:55:41.566Z,86.45
2022-11-11T20:58:29.138Z,86.43
2022-11-11T21:01:25.552Z,86.35
2022-11-11T21:04:12.603Z,86.18
2022-11-11T21:06:59.236Z,85.96
2022-11-11T21:09:46.156Z,86.26
2022-11-11T21:12:32.892Z,86.23
2022-11-11T21:15:19.715Z,86.13
2022-11-11T21:18:06.254Z,86.13
2022-11-11T21:20:53.042Z,86.25
2022-11-11T21:23:40.485Z,86.45
2022-11-11T21:26:28.699Z,86.35
2022-11-11T21:29:16.249Z,86.30
2022-11-11T21:32:02.742Z,86.55
2022-11-11T21:34:49.602Z,86.40
2022-11-11T21:37:36.050Z,86.59
2022-11-11T21:40:22.691Z,86.74
2022-11-11T21:43:11.467Z,86.25
2022-11-11T21:46:03.730Z,86.27
2022-11-11T21:48:52.732Z,86.21
2022-11-11T21:51:39.369Z,86.20
2022-11-11T21:54:26.069Z,86.26
2022-11-11T21:57:13.114Z,86.26
2022-11-11T21:59:59.723Z,86.15
2022-11-11T22:02:46.485Z,86.09
2022-11-11T22:05:33.094Z,86.28
2022-11-11T22:08:19.652Z,86.20
2022-11-11T22:11:11.529Z,86.29
2022-11-11T22:14:01.236Z,86.19
2022-11-11T22:16:48.148Z,86.08
2022-11-11T22:19:34.971Z,86.30
2022-11-11T22:22:21.618Z,85.62
2022-11-11T22:25:08.750Z,85.80
2022-11-11T22:27:55.645Z,85.71
2022-11-11T22:30:42.705Z,85.78
2022-11-11T22:33:29.713Z,85.60
2022-11-11T22:36:19.504Z,85.68
2022-11-11T22:39:08.386Z,85.53
2022-11-11T22:41:55.197Z,85.55
2022-11-11T22:44:41.841Z,85.55
2022-11-11T22:47:28.638Z,85.68
2022-11-11T22:50:15.531Z,86.17
2022-11-11T22:53:02.154Z,85.73
2022-11-11T22:55:49.060Z,85.64
2022-11-11T22:58:38.657Z,85.75
2022-11-11T23:01:30.804Z,85.85
2022-11-11T23:04:17.722Z,86.04
2022-11-11T23:07:04.648Z,86.13
2022-11-11T23:09:51.395Z,86.34
2022-11-11T23:12:38.068Z,86.34
2022-11-11T23:15:24.581Z,86.66
2022-11-11T23:18:11.453Z,86.58
2022-11-11T23:21:04.680Z,86.76
2022-11-11T23:23:52.127Z,86.72
2022-11-11T23:26:38.992Z,86.72
2022-11-11T23:29:25.714Z,86.85
2022-11-11T23:32:12.485Z,86.97
2022-11-11T23:34:59.350Z,87.01
2022-11-11T23:37:45.906Z,87.57
2022-11-11T23:40:32.958Z,87.31
2022-11-11T23:43:19.428Z,86.86
2022-11-11T23:46:07.086Z,86.85
2022-11-11T23:48:53.685Z,87.88
2022-11-11T23:51:40.234Z,87.23
2022-11-11T23:54:26.916Z,87.30
2022-11-11T23:57:13.654Z,87.17
